createdAt,value
2023-03-17T00:02:07.503Z,2.19
2023-03-17T00:04:36.819Z,2.18
2023-03-17T00:07:08.407Z,2.18
2023-03-17T00:09:36.411Z,2.06
2023-03-17T00:12:07.912Z,2.03
2023-03-17T00:14:37.301Z,2.19
2023-03-17T00:17:05.950Z,2.29
2023-03-17T00:19:36.421Z,2.17
2023-03-17T00:22:06.681Z,2.15
2023-03-17T00:24:34.745Z,2.18
2023-03-17T00:27:04.432Z,2.26
2023-03-17T00:29:32.332Z,2.11
2023-03-17T00:32:01.580Z,1.98
2023-03-17T00:34:29.886Z,1.95
2023-03-17T00:36:57.860Z,1.91
2023-03-17T00:39:27.173Z,2.18
2023-03-17T00:41:55.078Z,2.09
2023-03-17T00:44:22.994Z,2.13
2023-03-17T00:46:50.912Z,2.05
2023-03-17T00:49:22.337Z,1.96
2023-03-17T00:51:51.474Z,2.18
2023-03-17T00:54:20.932Z,2.21
2023-03-17T00:56:50.911Z,2.17
2023-03-17T00:59:27.443Z,2.27
2023-03-17T01:01:56.318Z,2.42
2023-03-17T01:04:25.745Z,2.42
2023-03-17T01:06:54.189Z,2.29
2023-03-17T01:09:26.563Z,2.21
2023-03-17T01:11:55.157Z,2.15
2023-03-17T01:14:24.860Z,1.86
2023-03-17T01:16:55.233Z,1.80
2023-03-17T01:19:23.783Z,1.82
2023-03-17T01:21:53.098Z,2.01
2023-03-17T01:24:21.136Z,2.24
2023-03-17T01:26:49.018Z,2.27
2023-03-17T01:29:17.645Z,2.11
2023-03-17T01:31:46.224Z,2.04
2023-03-17T01:34:14.237Z,2.05
2023-03-17T01:36:42.109Z,1.98
2023-03-17T01:39:11.427Z,1.95
2023-03-17T01:41:40.201Z,1.97
2023-03-17T01:44:08.633Z,1.97
2023-03-17T01:46:37.488Z,1.96
2023-03-17T01:49:11.392Z,1.89
2023-03-17T01:51:43.256Z,1.93
2023-03-17T01:54:17.923Z,2.02
2023-03-17T01:56:50.126Z,2.06
2023-03-17T01:59:20.738Z,2.14
2023-03-17T02:01:52.551Z,2.12
2023-03-17T02:04:22.034Z,2.21
2023-03-17T02:06:57.822Z,2.36
2023-03-17T02:09:29.161Z,2.21
2023-03-17T02:11:59.916Z,1.99
2023-03-17T02:14:28.767Z,1.87
2023-03-17T02:16:57.485Z,1.98
2023-03-17T02:19:25.709Z,2.04
2023-03-17T02:21:56.864Z,2.09
2023-03-17T02:24:30.044Z,2.15
2023-03-17T02:27:01.536Z,2.13
2023-03-17T02:29:31.072Z,2.02
2023-03-17T02:31:59.165Z,2.00
2023-03-17T02:34:27.104Z,1.88
2023-03-17T02:36:57.179Z,1.73
2023-03-17T02:39:25.349Z,1.67
2023-03-17T02:41:53.389Z,1.66
2023-03-17T02:44:21.490Z,1.77
2023-03-17T02:46:49.332Z,1.96
2023-03-17T02:49:17.715Z,2.14
2023-03-17T02:51:46.125Z,2.14
2023-03-17T02:54:15.501Z,2.18
2023-03-17T02:56:43.478Z,2.28
2023-03-17T02:59:12.068Z,2.36
2023-03-17T03:01:40.026Z,2.38
2023-03-17T03:04:08.800Z,2.36
2023-03-17T03:06:37.622Z,2.14
2023-03-17T03:09:05.772Z,1.91
2023-03-17T03:11:35.052Z,1.84
2023-03-17T03:14:03.597Z,1.68
2023-03-17T03:16:31.482Z,1.60
2023-03-17T03:18:59.423Z,1.53
2023-03-17T03:21:27.697Z,1.39
2023-03-17T03:23:55.943Z,1.44
2023-03-17T03:26:24.258Z,1.52
2023-03-17T03:28:53.990Z,1.57
2023-03-17T03:31:21.898Z,1.65
2023-03-17T03:33:49.808Z,1.63
2023-03-17T03:36:17.684Z,1.47
2023-03-17T03:38:45.843Z,1.37
2023-03-17T03:41:14.209Z,1.21
2023-03-17T03:43:42.399Z,0.99
2023-03-17T03:46:12.124Z,1.26
2023-03-17T03:48:40.009Z,1.08
2023-03-17T03:51:08.031Z,1.16
2023-03-17T03:53:36.204Z,1.30
2023-03-17T03:56:04.218Z,1.51
2023-03-17T03:58:32.102Z,1.69
2023-03-17T04:01:00.027Z,1.54
2023-03-17T04:03:29.314Z,1.60
2023-03-17T04:05:57.697Z,1.35
2023-03-17T04:08:26.074Z,1.43
2023-03-17T04:10:54.085Z,1.30
2023-03-17T04:13:22.284Z,1.17
2023-03-17T04:15:50.224Z,1.07
2023-03-17T04:18:18.665Z,1.26
2023-03-17T04:20:47.914Z,1.02
2023-03-17T04:23:15.842Z,0.83
2023-03-17T04:25:43.709Z,0.98
2023-03-17T04:28:12.615Z,0.91
2023-03-17T04:30:40.482Z,0.82
2023-03-17T04:33:08.420Z,0.96
2023-03-17T04:35:36.376Z,0.97
2023-03-17T04:38:05.897Z,0.79
2023-03-17T04:40:33.765Z,0.70
2023-03-17T04:43:03.447Z,0.70
2023-03-17T04:45:31.755Z,0.72
2023-03-17T04:47:59.657Z,0.65
2023-03-17T04:50:27.692Z,0.66
2023-03-17T04:52:55.828Z,0.90
2023-03-17T04:55:25.170Z,0.90
2023-03-17T04:57:53.046Z,0.75
2023-03-17T05:00:21.407Z,0.77
2023-03-17T05:02:49.255Z,0.91
2023-03-17T05:05:17.390Z,0.94
2023-03-17T05:07:45.507Z,0.84
2023-03-17T05:10:13.888Z,0.72
2023-03-17T05:12:43.170Z,0.69
2023-03-17T05:15:11.682Z,0.52
2023-03-17T05:17:39.642Z,0.47
2023-03-17T05:20:09.566Z,0.39
2023-03-17T05:22:37.523Z,0.39
2023-03-17T05:25:06.763Z,0.60
2023-03-17T05:27:34.762Z,0.47
2023-03-17T05:30:04.837Z,0.58
2023-03-17T05:32:33.629Z,0.38
2023-03-17T05:35:02.247Z,0.26
2023-03-17T05:37:30.119Z,0.34
2023-03-17T05:39:57.996Z,0.52
2023-03-17T05:42:26.366Z,0.51
2023-03-17T05:44:54.422Z,0.62
2023-03-17T05:47:23.901Z,0.61
2023-03-17T05:49:53.491Z,0.74
2023-03-17T05:52:21.493Z,0.74
2023-03-17T05:54:49.411Z,0.61
2023-03-17T05:57:17.318Z,0.50
2023-03-17T05:59:45.516Z,0.66
2023-03-17T06:02:14.618Z,0.78
2023-03-17T06:04:44.265Z,0.82
2023-03-17T06:07:12.331Z,0.84
2023-03-17T06:09:40.570Z,0.90
2023-03-17T06:12:09.451Z,0.84
2023-03-17T06:14:37.526Z,0.86
2023-03-17T06:17:05.594Z,0.78
2023-03-17T06:19:33.538Z,0.84
2023-03-17T06:22:02.768Z,0.95
2023-03-17T06:24:30.674Z,1.03
2023-03-17T06:26:58.527Z,1.26
2023-03-17T06:29:26.509Z,1.18
2023-03-17T06:31:54.437Z,1.10
2023-03-17T06:34:24.102Z,1.22
2023-03-17T06:36:52.275Z,1.16
2023-03-17T06:39:21.583Z,1.30
2023-03-17T06:41:51.197Z,1.35
2023-03-17T06:44:19.115Z,1.39
2023-03-17T06:46:47.006Z,1.56
2023-03-17T06:49:14.955Z,1.67
2023-03-17T06:51:42.807Z,1.69
2023-03-17T06:54:10.892Z,1.93
2023-03-17T06:56:40.178Z,2.09
2023-03-17T06:59:08.113Z,2.10
2023-03-17T07:01:36.014Z,2.16
2023-03-17T07:04:05.491Z,2.30
2023-03-17T07:06:34.048Z,2.15
2023-03-17T07:09:02.480Z,2.28
2023-03-17T07:11:30.820Z,2.41
2023-03-17T07:14:00.578Z,2.68
2023-03-17T07:16:28.999Z,3.03
2023-03-17T07:18:57.116Z,2.79
2023-03-17T07:21:25.050Z,3.14
2023-03-17T07:23:52.994Z,3.65
2023-03-17T07:26:20.878Z,3.38
2023-03-17T07:28:48.801Z,3.79
2023-03-17T07:31:18.319Z,3.44
2023-03-17T07:33:46.483Z,4.20
2023-03-17T07:36:15.917Z,3.98
2023-03-17T07:38:44.428Z,4.24
2023-03-17T07:41:12.364Z,4.44
2023-03-17T07:43:40.642Z,4.36
2023-03-17T07:46:08.656Z,4.69
2023-03-17T07:48:42.159Z,4.94
2023-03-17T07:51:14.649Z,4.70
2023-03-17T07:53:43.201Z,5.10
2023-03-17T07:56:11.159Z,4.54
2023-03-17T07:58:39.149Z,4.88
2023-03-17T08:01:08.501Z,4.81
2023-03-17T08:03:41.002Z,5.85
2023-03-17T08:06:09.849Z,5.44
2023-03-17T08:08:37.866Z,5.52
2023-03-17T08:11:07.768Z,5.86
2023-03-17T08:13:35.863Z,5.82
2023-03-17T08:16:03.770Z,6.23
2023-03-17T08:18:32.077Z,6.52
2023-03-17T08:21:02.118Z,6.65
2023-03-17T08:23:31.133Z,6.61
2023-03-17T08:25:59.259Z,6.77
2023-03-17T08:28:27.360Z,7.15
2023-03-17T08:30:55.925Z,7.01
2023-03-17T08:33:23.989Z,7.01
2023-03-17T08:35:52.289Z,7.10
2023-03-17T08:38:21.615Z,7.17
2023-03-17T08:40:51.048Z,7.21
2023-03-17T08:43:19.084Z,7.68
2023-03-17T08:45:47.062Z,7.64
2023-03-17T08:48:15.402Z,7.50
2023-03-17T08:50:43.530Z,7.84
2023-03-17T08:53:11.992Z,8.06
2023-03-17T08:55:41.324Z,8.23
2023-03-17T08:58:09.598Z,8.04
2023-03-17T09:00:37.643Z,8.13
2023-03-17T09:03:05.922Z,8.64
2023-03-17T09:05:36.903Z,8.64
2023-03-17T09:08:06.239Z,8.92
2023-03-17T09:10:34.459Z,8.77
2023-03-17T09:13:04.788Z,9.08
2023-03-17T09:15:34.319Z,9.03
2023-03-17T09:18:03.334Z,9.10
2023-03-17T09:20:31.645Z,9.24
2023-03-17T09:22:59.877Z,9.18
2023-03-17T09:25:28.467Z,9.18
2023-03-17T09:27:56.824Z,9.35
2023-03-17T09:30:27.054Z,9.40
2023-03-17T09:32:55.122Z,9.69
2023-03-17T09:35:23.147Z,9.82
2023-03-17T09:37:51.670Z,9.80
2023-03-17T09:40:22.468Z,10.08
2023-03-17T09:43:01.602Z,10.01
2023-03-17T09:45:36.802Z,10.42
2023-03-17T09:48:23.757Z,10.43
2023-03-17T09:50:57.585Z,10.11
2023-03-17T09:53:28.358Z,10.33
2023-03-17T09:55:59.912Z,10.55
2023-03-17T09:58:33.168Z,10.60
2023-03-17T10:01:05.267Z,10.53
2023-03-17T10:03:34.223Z,10.60
2023-03-17T10:06:18.968Z,10.70
2023-03-17T10:08:52.776Z,11.19
2023-03-17T10:11:24.672Z,11.22
2023-03-17T10:13:59.347Z,11.35
2023-03-17T10:16:35.755Z,11.17
2023-03-17T10:19:11.700Z,11.31
2023-03-17T10:21:49.780Z,11.24
2023-03-17T10:24:17.939Z,11.20
2023-03-17T10:26:49.277Z,11.39
2023-03-17T10:29:21.467Z,11.79
2023-03-17T10:31:51.851Z,11.58
2023-03-17T10:34:23.846Z,11.51
2023-03-17T10:36:55.552Z,11.87
2023-03-17T10:39:25.003Z,11.95
2023-03-17T10:41:58.122Z,12.39
2023-03-17T10:44:40.689Z,12.30
2023-03-17T10:47:22.728Z,12.24
2023-03-17T10:49:52.120Z,12.43
2023-03-17T10:52:23.697Z,12.29
2023-03-17T10:54:52.724Z,12.32
2023-03-17T10:57:21.422Z,12.62
2023-03-17T10:59:57.599Z,12.85
2023-03-17T11:02:29.474Z,13.07
2023-03-17T11:05:02.481Z,12.74
2023-03-17T11:07:35.411Z,12.61
2023-03-17T11:10:04.839Z,12.71
2023-03-17T11:12:39.409Z,12.84
2023-03-17T11:15:12.094Z,12.91
2023-03-17T11:17:49.795Z,13.11
2023-03-17T11:20:33.041Z,13.14
2023-03-17T11:23:07.342Z,13.18
2023-03-17T11:25:42.727Z,13.29
2023-03-17T11:28:20.979Z,13.23
2023-03-17T11:30:59.552Z,13.28
2023-03-17T11:33:36.333Z,13.42
2023-03-17T11:36:13.442Z,13.70
2023-03-17T11:38:51.689Z,13.84
2023-03-17T11:41:41.863Z,13.91
2023-03-17T11:44:28.988Z,13.95
2023-03-17T11:47:02.562Z,14.13
2023-03-17T11:49:37.095Z,14.52
2023-03-17T11:52:12.257Z,14.40
2023-03-17T11:54:50.710Z,14.58
2023-03-17T11:57:24.052Z,14.57
2023-03-17T11:59:57.027Z,14.55
2023-03-17T12:02:32.178Z,14.43
2023-03-17T12:05:06.197Z,14.64
2023-03-17T12:07:37.959Z,15.02
2023-03-17T12:10:17.411Z,15.30
2023-03-17T12:12:51.069Z,14.97
2023-03-17T12:15:24.108Z,15.25
2023-03-17T12:17:57.261Z,15.41
2023-03-17T12:20:35.010Z,15.59
2023-03-17T12:23:09.199Z,15.78
2023-03-17T12:25:45.120Z,15.98
2023-03-17T12:28:17.157Z,15.82
2023-03-17T12:30:51.092Z,15.99
2023-03-17T12:33:26.519Z,16.00
2023-03-17T12:35:55.902Z,16.17
2023-03-17T12:38:30.809Z,16.14
2023-03-17T12:41:32.807Z,16.41
2023-03-17T12:44:06.690Z,16.75
2023-03-17T12:46:52.016Z,16.68
2023-03-17T12:49:45.193Z,16.61
2023-03-17T12:52:26.032Z,16.98
2023-03-17T12:54:54.806Z,16.99
2023-03-17T12:57:28.379Z,17.23
2023-03-17T13:00:05.625Z,17.16
2023-03-17T13:02:38.526Z,17.34
2023-03-17T13:05:10.096Z,17.24
2023-03-17T13:07:46.635Z,17.23
2023-03-17T13:10:41.662Z,17.75
2023-03-17T13:13:23.298Z,18.32
2023-03-17T13:16:04.479Z,18.18
2023-03-17T13:18:54.077Z,18.45
2023-03-17T13:21:26.459Z,18.54
2023-03-17T13:24:20.546Z,18.71
2023-03-17T13:27:00.979Z,19.04
2023-03-17T13:29:47.357Z,19.06
2023-03-17T13:32:38.193Z,19.14
2023-03-17T13:35:20.969Z,19.48
2023-03-17T13:38:13.659Z,19.57
2023-03-17T13:40:57.725Z,19.17
2023-03-17T13:43:50.030Z,18.79
2023-03-17T13:46:27.816Z,18.69
2023-03-17T13:48:57.676Z,18.55
2023-03-17T13:51:34.197Z,18.29
2023-03-17T13:54:12.030Z,18.18
2023-03-17T13:56:54.347Z,18.18
2023-03-17T13:59:24.757Z,18.27
2023-03-17T14:01:57.774Z,18.18
2023-03-17T14:04:28.387Z,18.09
2023-03-17T14:07:01.103Z,17.98
2023-03-17T14:09:37.385Z,17.90
2023-03-17T14:12:14.245Z,17.91
2023-03-17T14:14:49.706Z,17.81
2023-03-17T14:17:24.639Z,17.74
2023-03-17T14:20:08.524Z,17.77
2023-03-17T14:22:41.553Z,17.78
2023-03-17T14:25:17.211Z,17.80
2023-03-17T14:27:49.325Z,17.78
2023-03-17T14:30:22.670Z,17.72
2023-03-17T14:32:57.215Z,17.72
2023-03-17T14:35:25.615Z,17.75
2023-03-17T14:37:53.492Z,17.73
2023-03-17T14:40:24.048Z,17.71
2023-03-17T14:42:53.582Z,17.70
2023-03-17T14:45:29.433Z,17.66
2023-03-17T14:47:58.106Z,17.59
2023-03-17T14:50:29.726Z,17.62
2023-03-17T14:52:59.923Z,17.46
2023-03-17T14:55:37.054Z,17.32
2023-03-17T14:58:11.317Z,17.24
2023-03-17T15:00:44.894Z,17.15
2023-03-17T15:03:18.677Z,17.11
2023-03-17T15:05:47.489Z,16.97
2023-03-17T15:08:42.760Z,16.96
2023-03-17T15:11:18.816Z,16.90
2023-03-17T15:13:49.888Z,16.84
2023-03-17T15:16:22.271Z,16.75
2023-03-17T15:18:58.698Z,16.60
2023-03-17T15:21:34.622Z,16.56
2023-03-17T15:24:21.309Z,16.52
2023-03-17T15:26:49.738Z,16.38
2023-03-17T15:29:19.736Z,16.36
2023-03-17T15:31:47.727Z,16.40
2023-03-17T15:34:16.209Z,16.30
2023-03-17T15:36:47.478Z,16.34
2023-03-17T15:39:15.493Z,16.33
2023-03-17T15:41:43.449Z,16.30
2023-03-17T15:44:11.850Z,16.33
2023-03-17T15:46:42.026Z,16.34
2023-03-17T15:49:12.274Z,16.18
2023-03-17T15:51:40.619Z,16.20
2023-03-17T15:54:12.382Z,16.10
2023-03-17T15:57:24.824Z,15.98
2023-03-17T15:59:53.088Z,15.99
2023-03-17T16:02:30.997Z,15.90
2023-03-17T16:05:01.878Z,15.84
2023-03-17T16:07:31.573Z,15.80
2023-03-17T16:09:59.927Z,15.73
2023-03-17T16:12:27.999Z,15.67
2023-03-17T16:14:56.126Z,15.59
2023-03-17T16:17:30.056Z,15.50
2023-03-17T16:19:58.669Z,15.43
2023-03-17T16:22:43.774Z,15.35
2023-03-17T16:25:26.930Z,15.26
2023-03-17T16:27:56.564Z,15.16
2023-03-17T16:30:27.129Z,15.09
2023-03-17T16:33:00.945Z,15.09
2023-03-17T16:35:29.900Z,15.05
2023-03-17T16:37:57.796Z,15.03
2023-03-17T16:40:27.872Z,14.94
2023-03-17T16:42:56.167Z,14.90
2023-03-17T16:45:29.844Z,14.74
2023-03-17T16:47:58.892Z,14.82
2023-03-17T16:50:36.041Z,14.70
2023-03-17T16:53:06.301Z,14.67
2023-03-17T16:55:34.692Z,14.63
2023-03-17T16:58:08.557Z,14.64
2023-03-17T17:00:36.847Z,14.49
2023-03-17T17:03:06.294Z,14.46
2023-03-17T17:05:34.558Z,14.36
2023-03-17T17:08:02.980Z,14.31
2023-03-17T17:10:34.413Z,14.27
2023-03-17T17:13:02.721Z,14.11
2023-03-17T17:15:31.988Z,14.05
2023-03-17T17:18:03.874Z,14.05
2023-03-17T17:20:36.085Z,13.93
2023-03-17T17:23:06.730Z,13.85
2023-03-17T17:25:34.991Z,13.74
2023-03-17T17:28:02.892Z,13.68
2023-03-17T17:30:31.795Z,13.56
2023-03-17T17:33:01.875Z,13.46
2023-03-17T17:35:32.840Z,13.16
2023-03-17T17:38:02.705Z,12.92
2023-03-17T17:40:32.268Z,12.98
2023-03-17T17:43:00.586Z,13.12
2023-03-17T17:45:29.444Z,13.13
2023-03-17T17:47:57.721Z,12.95
2023-03-17T17:50:28.471Z,12.70
2023-03-17T17:53:02.709Z,12.50
2023-03-17T17:55:34.176Z,12.44
2023-03-17T17:58:02.382Z,12.25
2023-03-17T18:00:31.091Z,12.23
2023-03-17T18:02:59.460Z,12.35
2023-03-17T18:05:38.555Z,11.99
2023-03-17T18:08:10.003Z,11.88
2023-03-17T18:10:40.240Z,11.90
2023-03-17T18:13:12.459Z,11.95
2023-03-17T18:15:44.078Z,11.73
2023-03-17T18:18:14.230Z,11.88
2023-03-17T18:20:45.132Z,11.86
2023-03-17T18:23:16.318Z,11.71
2023-03-17T18:25:55.008Z,11.75
2023-03-17T18:28:25.021Z,11.86
2023-03-17T18:30:55.787Z,12.04
2023-03-17T18:33:33.271Z,11.99
2023-03-17T18:36:02.868Z,11.95
2023-03-17T18:38:33.224Z,11.77
2023-03-17T18:41:04.216Z,11.66
2023-03-17T18:43:32.193Z,11.47
2023-03-17T18:46:00.893Z,11.47
2023-03-17T18:48:29.527Z,11.51
2023-03-17T18:50:57.563Z,11.31
2023-03-17T18:53:30.807Z,11.20
2023-03-17T18:55:59.428Z,11.05
2023-03-17T18:58:29.362Z,10.69
2023-03-17T19:00:59.701Z,10.45
2023-03-17T19:03:28.361Z,10.37
2023-03-17T19:05:56.916Z,10.35
2023-03-17T19:08:25.457Z,10.36
2023-03-17T19:10:53.343Z,10.38
2023-03-17T19:13:21.298Z,10.40
2023-03-17T19:15:50.880Z,10.47
2023-03-17T19:18:18.775Z,10.65
2023-03-17T19:20:46.892Z,10.92
2023-03-17T19:23:15.571Z,11.17
2023-03-17T19:25:43.569Z,11.36
2023-03-17T19:28:11.477Z,11.31
2023-03-17T19:30:39.615Z,11.41
2023-03-17T19:33:09.237Z,11.42
2023-03-17T19:35:37.153Z,11.51
2023-03-17T19:38:05.229Z,11.70
2023-03-17T19:40:33.448Z,11.64
2023-03-17T19:43:01.602Z,11.67
2023-03-17T19:45:29.531Z,11.87
2023-03-17T19:47:57.679Z,11.79
2023-03-17T19:50:27.407Z,11.70
2023-03-17T19:52:55.711Z,11.70
2023-03-17T19:55:24.974Z,11.74
2023-03-17T19:57:53.004Z,12.16
2023-03-17T20:00:22.577Z,12.24
2023-03-17T20:02:50.955Z,12.32
2023-03-17T20:05:18.949Z,12.41
2023-03-17T20:07:48.225Z,12.55
2023-03-17T20:10:16.156Z,12.57
2023-03-17T20:12:45.791Z,12.36
2023-03-17T20:15:14.164Z,12.34
2023-03-17T20:17:42.036Z,12.25
2023-03-17T20:20:11.973Z,12.38
2023-03-17T20:22:40.445Z,12.35
2023-03-17T20:25:10.965Z,12.20
2023-03-17T20:27:39.011Z,12.26
2023-03-17T20:30:11.502Z,12.43
2023-03-17T20:32:40.335Z,12.29
2023-03-17T20:35:09.346Z,12.31
2023-03-17T20:37:37.446Z,12.36
2023-03-17T20:40:08.425Z,12.41
2023-03-17T20:42:38.456Z,12.40
2023-03-17T20:45:07.560Z,12.36
2023-03-17T20:47:36.191Z,12.19
2023-03-17T20:50:04.625Z,12.29
2023-03-17T20:52:32.492Z,12.23
2023-03-17T20:55:00.551Z,12.09
2023-03-17T20:57:28.807Z,12.13
2023-03-17T20:59:58.198Z,12.25
2023-03-17T21:02:26.665Z,12.27
2023-03-17T21:04:54.580Z,12.20
2023-03-17T21:07:23.304Z,12.12
2023-03-17T21:09:51.998Z,12.06
2023-03-17T21:12:21.362Z,12.07
2023-03-17T21:14:49.341Z,11.90
2023-03-17T21:17:19.117Z,11.83
2023-03-17T21:19:47.541Z,11.68
2023-03-17T21:22:16.132Z,11.37
2023-03-17T21:24:44.218Z,11.29
2023-03-17T21:27:13.301Z,11.35
2023-03-17T21:29:41.560Z,11.08
2023-03-17T21:32:09.589Z,10.92
2023-03-17T21:34:40.208Z,10.67
2023-03-17T21:37:09.391Z,10.71
2023-03-17T21:39:37.390Z,10.74
2023-03-17T21:42:05.682Z,10.77
2023-03-17T21:44:33.626Z,10.64
2023-03-17T21:47:03.110Z,10.39
2023-03-17T21:49:31.101Z,10.38
2023-03-17T21:52:00.378Z,10.35
2023-03-17T21:54:28.533Z,10.42
2023-03-17T21:56:56.460Z,10.34
2023-03-17T21:59:24.989Z,10.33
2023-03-17T22:01:57.207Z,10.44
2023-03-17T22:04:26.038Z,10.53
2023-03-17T22:06:55.642Z,10.53
2023-03-17T22:09:24.932Z,10.54
2023-03-17T22:11:52.808Z,10.55
2023-03-17T22:14:21.041Z,10.69
2023-03-17T22:16:49.485Z,10.73
2023-03-17T22:19:21.110Z,10.89
2023-03-17T22:21:49.439Z,10.78
2023-03-17T22:24:17.878Z,10.66
2023-03-17T22:26:47.222Z,10.52
2023-03-17T22:29:15.415Z,10.35
2023-03-17T22:31:43.808Z,10.24
2023-03-17T22:34:11.832Z,10.06
2023-03-17T22:36:39.822Z,10.06
2023-03-17T22:39:08.927Z,9.87
2023-03-17T22:41:37.205Z,9.97
2023-03-17T22:44:08.327Z,10.06
2023-03-17T22:46:36.667Z,10.07
2023-03-17T22:49:05.917Z,9.91
2023-03-17T22:51:33.894Z,10.12
2023-03-17T22:54:02.065Z,10.36
2023-03-17T22:56:30.164Z,10.36
2023-03-17T22:58:58.130Z,10.34
2023-03-17T23:01:27.704Z,10.45
2023-03-17T23:03:56.093Z,10.54
2023-03-17T23:06:25.048Z,10.45
2023-03-17T23:08:54.103Z,10.35
2023-03-17T23:11:26.868Z,10.30
2023-03-17T23:13:55.512Z,10.39
2023-03-17T23:16:27.228Z,10.21
2023-03-17T23:18:57.141Z,10.12
2023-03-17T23:21:29.220Z,10.27
2023-03-17T23:23:57.334Z,10.26
2023-03-17T23:26:26.610Z,10.33
2023-03-17T23:28:55.198Z,10.43
2023-03-17T23:31:23.858Z,10.45
2023-03-17T23:33:53.052Z,10.41
2023-03-17T23:36:22.765Z,10.45
2023-03-17T23:38:52.300Z,10.35
2023-03-17T23:41:21.234Z,10.22
2023-03-17T23:43:50.467Z,10.09
2023-03-17T23:46:19.570Z,10.13
2023-03-17T23:48:50.543Z,10.10
2023-03-17T23:51:22.735Z,9.84
2023-03-17T23:53:54.160Z,9.69
2023-03-17T23:56:22.379Z,9.51
2023-03-17T23:58:51.509Z,9.51
